Time;durP1;ratioP1;P1;durP2;ratioP2;P2;SDS_P1;SDS_P2;PMS_P1;PMS_P2;Temp;Humidity;BMP_temperature;BMP_pressure;BME280_temperature;BME280_humidity;BME280_pressure;Samples;Min_cycle;Max_cycle;Signal;HPM_P1;HPM_P2
2023/06/17 00:00:32;;;;;;;8.07;6.57;;;;;;;;;;4898859;29;20048;-80
2023/06/17 00:03:17;;;;;;;9.90;6.50;;;;;;;;;;4898763;29;20486;-79
2023/06/17 00:06:03;;;;;;;13.43;7.00;;;;;;;;;;4898863;29;20063;-80
2023/06/17 00:08:49;;;;;;;8.00;6.95;;;;;;;;;;4899135;29;20486;-88
2023/06/17 00:11:35;;;;;;;8.50;7.32;;;;;;;;;;4899497;29;20045;-87
2023/06/17 00:14:20;;;;;;;8.30;7.07;;;;;;;;;;4899197;29;20057;-86
2023/06/17 00:17:08;;;;;;;7.43;6.45;;;;;;;;;;4898632;29;20048;-80
2023/06/17 00:19:56;;;;;;;9.82;7.07;;;;;;;;;;4898718;29;20036;-86
2023/06/17 00:22:43;;;;;;;9.15;6.88;;;;;;;;;;4900780;29;20048;-86
2023/06/17 00:25:28;;;;;;;7.78;6.53;;;;;;;;;;4907110;29;20048;-86
2023/06/17 00:28:16;;;;;;;7.57;6.78;;;;;;;;;;4899862;29;20049;-80
2023/06/17 00:31:01;;;;;;;8.35;6.78;;;;;;;;;;4898547;29;20048;-80
2023/06/17 00:33:47;;;;;;;8.13;6.90;;;;;;;;;;4898753;29;20048;-80
2023/06/17 00:36:32;;;;;;;9.07;7.22;;;;;;;;;;4891118;29;20045;-85
2023/06/17 00:39:18;;;;;;;9.15;7.10;;;;;;;;;;4904148;29;20052;-86
2023/06/17 00:42:05;;;;;;;7.82;7.03;;;;;;;;;;4890731;29;20049;-80
2023/06/17 00:44:50;;;;;;;12.02;7.28;;;;;;;;;;4904003;29;20056;-86
2023/06/17 00:47:38;;;;;;;9.70;6.70;;;;;;;;;;4898397;29;20052;-86
2023/06/17 00:50:24;;;;;;;15.50;9.20;;;;;;;;;;4905939;29;20053;-80
2023/06/17 00:53:10;;;;;;;9.70;6.60;;;;;;;;;;4894456;29;20044;-86
2023/06/17 00:55:58;;;;;;;11.10;7.05;;;;;;;;;;4902134;29;20048;-85
2023/06/17 00:58:45;;;;;;;16.13;7.10;;;;;;;;;;4907675;29;20045;-86
2023/06/17 01:01:30;;;;;;;9.88;7.07;;;;;;;;;;4903054;29;20056;-87
2023/06/17 01:04:15;;;;;;;9.68;7.05;;;;;;;;;;4902540;29;20045;-80
2023/06/17 01:07:35;;;;;;;9.10;7.28;;;;;;;;;;4902342;29;20052;-80
2023/06/17 01:10:42;;;;;;;13.48;8.02;;;;;;;;;;4907043;29;20048;-86
2023/06/17 01:13:27;;;;;;;9.18;7.30;;;;;;;;;;4907156;29;20044;-80
2023/06/17 01:16:13;;;;;;;8.45;7.22;;;;;;;;;;4901821;29;20048;-80
2023/06/17 01:18:59;;;;;;;12.77;7.32;;;;;;;;;;4908262;29;20052;-86
2023/06/17 01:21:49;;;;;;;16.48;7.97;;;;;;;;;;4907037;29;20044;-86
2023/06/17 01:24:34;;;;;;;12.30;7.78;;;;;;;;;;4907174;29;20041;-85
2023/06/17 01:27:23;;;;;;;10.45;7.68;;;;;;;;;;4901672;29;20040;-80
2023/06/17 01:30:09;;;;;;;11.90;8.10;;;;;;;;;;4901527;29;20044;-86
2023/06/17 01:32:56;;;;;;;9.70;8.13;;;;;;;;;;4907200;29;20040;-86
2023/06/17 01:35:50;;;;;;;10.80;8.85;;;;;;;;;;4906819;29;20052;-88
2023/06/17 01:38:44;;;;;;;15.95;9.68;;;;;;;;;;4906982;29;20036;-88
2023/06/17 01:41:35;;;;;;;21.05;16.00;;;;;;;;;;4908068;29;20044;-82
2023/06/17 01:44:24;;;;;;;31.00;20.67;;;;;;;;;;4893476;29;20044;-87
2023/06/17 01:47:11;;;;;;;35.88;20.50;;;;;;;;;;4903224;29;20052;-88
2023/06/17 01:49:59;;;;;;;26.65;19.90;;;;;;;;;;4906534;29;20497;-88
2023/06/17 01:52:45;;;;;;;22.95;17.05;;;;;;;;;;4906846;29;20052;-88
2023/06/17 01:55:31;;;;;;;48.85;33.42;;;;;;;;;;4901479;29;20040;-81
2023/06/17 01:58:17;;;;;;;60.65;41.00;;;;;;;;;;4906490;29;20045;-81
2023/06/17 02:01:02;;;;;;;31.08;19.92;;;;;;;;;;4906232;29;20036;-81
2023/06/17 02:03:47;;;;;;;21.45;14.27;;;;;;;;;;4901381;29;20041;-88
2023/06/17 02:06:35;;;;;;;17.90;12.48;;;;;;;;;;4902458;29;20048;-81
2023/06/17 02:09:20;;;;;;;16.05;10.98;;;;;;;;;;4901333;29;20052;-81
2023/06/17 02:12:07;;;;;;;15.70;10.25;;;;;;;;;;4901252;29;20041;-81
2023/06/17 02:14:52;;;;;;;14.38;11.30;;;;;;;;;;4906095;29;20048;-81
2023/06/17 02:17:37;;;;;;;12.00;10.48;;;;;;;;;;4906461;29;20048;-82
2023/06/17 02:20:23;;;;;;;11.90;9.63;;;;;;;;;;4906319;29;20044;-87
2023/06/17 02:23:09;;;;;;;13.57;9.98;;;;;;;;;;4901110;29;20052;-87
2023/06/17 02:25:55;;;;;;;13.50;10.27;;;;;;;;;;4906021;29;20044;-87
2023/06/17 02:28:42;;;;;;;14.90;9.88;;;;;;;;;;4900707;29;20052;-82
2023/06/17 02:31:28;;;;;;;10.90;9.32;;;;;;;;;;4906439;29;20057;-82
2023/06/17 02:34:15;;;;;;;11.52;9.43;;;;;;;;;;4907090;29;20052;-87
2023/06/17 02:37:00;;;;;;;16.70;9.98;;;;;;;;;;4910305;29;20055;-85
2023/06/17 02:39:47;;;;;;;19.65;10.55;;;;;;;;;;4916135;29;20044;-82
2023/06/17 02:42:32;;;;;;;16.88;10.18;;;;;;;;;;4922764;29;20041;-82
2023/06/17 02:45:19;;;;;;;11.65;10.02;;;;;;;;;;4917434;29;20079;-82
2023/06/17 02:48:05;;;;;;;15.75;10.63;;;;;;;;;;4900057;29;20487;-82
2023/06/17 02:50:53;;;;;;;17.35;10.05;;;;;;;;;;4905559;29;20387;-82
2023/06/17 02:53:38;;;;;;;18.08;11.30;;;;;;;;;;4905435;29;20049;-87
2023/06/17 02:56:26;;;;;;;13.10;10.65;;;;;;;;;;4905484;29;20486;-88
2023/06/17 02:59:14;;;;;;;14.32;10.70;;;;;;;;;;4892948;29;20044;-87
2023/06/17 03:02:00;;;;;;;17.30;11.95;;;;;;;;;;4905227;29;20518;-87
2023/06/17 03:04:46;;;;;;;17.13;11.70;;;;;;;;;;4906138;29;20040;-82
2023/06/17 03:07:35;;;;;;;19.75;11.95;;;;;;;;;;4905184;29;20479;-83
2023/06/17 03:10:21;;;;;;;14.68;11.07;;;;;;;;;;4905024;29;20040;-82
2023/06/17 03:13:14;;;;;;;20.77;11.70;;;;;;;;;;4891533;29;20052;-83
2023/06/17 03:16:05;;;;;;;16.45;11.93;;;;;;;;;;4892197;29;20049;-87
2023/06/17 03:18:52;;;;;;;16.50;12.30;;;;;;;;;;4905154;29;20052;-87
2023/06/17 03:21:42;;;;;;;17.05;13.32;;;;;;;;;;4905010;29;20048;-82
2023/06/17 03:24:28;;;;;;;16.08;12.27;;;;;;;;;;4905198;29;20044;-87
2023/06/17 03:27:13;;;;;;;20.33;11.45;;;;;;;;;;4905068;29;20052;-87
2023/06/17 03:30:01;;;;;;;17.77;12.77;;;;;;;;;;4899333;29;20048;-87
2023/06/17 03:32:47;;;;;;;17.63;12.20;;;;;;;;;;4905047;29;20048;-82
2023/06/17 03:35:33;;;;;;;16.75;12.50;;;;;;;;;;4904710;29;20056;-82
2023/06/17 03:38:19;;;;;;;17.33;12.32;;;;;;;;;;4904683;29;20040;-82
2023/06/17 03:41:06;;;;;;;20.67;13.98;;;;;;;;;;4904793;29;20044;-87
2023/06/17 03:43:51;;;;;;;25.08;14.10;;;;;;;;;;4904728;29;20052;-84
2023/06/17 03:46:37;;;;;;;16.77;13.23;;;;;;;;;;4902158;29;20494;-81
2023/06/17 03:49:22;;;;;;;30.25;13.95;;;;;;;;;;4904457;29;20040;-81
2023/06/17 03:52:08;;;;;;;19.35;12.68;;;;;;;;;;4904186;29;20052;-81
2023/06/17 03:54:54;;;;;;;18.05;13.38;;;;;;;;;;4904702;29;20074;-81
2023/06/17 03:57:40;;;;;;;17.38;12.52;;;;;;;;;;4891143;29;20048;-81
2023/06/17 04:00:26;;;;;;;16.45;11.95;;;;;;;;;;4899537;29;20044;-82
2023/06/17 04:03:11;;;;;;;15.63;12.43;;;;;;;;;;4891838;29;20410;-84
2023/06/17 04:05:58;;;;;;;15.23;12.65;;;;;;;;;;4905071;29;20044;-85
2023/06/17 04:08:46;;;;;;;18.38;13.60;;;;;;;;;;4904317;29;20056;-84
2023/06/17 04:11:32;;;;;;;16.40;12.73;;;;;;;;;;4890921;29;20062;-84
2023/06/17 04:14:18;;;;;;;16.77;13.15;;;;;;;;;;4897258;29;20045;-81
2023/06/17 04:17:06;;;;;;;17.92;13.25;;;;;;;;;;4889684;29;20406;-82
2023/06/17 04:19:54;;;;;;;14.75;11.80;;;;;;;;;;4897319;29;20041;-81
2023/06/17 04:22:42;;;;;;;16.55;11.73;;;;;;;;;;4903636;29;20048;-84
2023/06/17 04:25:32;;;;;;;14.68;11.30;;;;;;;;;;4902222;29;20048;-84
2023/06/17 04:28:19;;;;;;;14.55;10.73;;;;;;;;;;4904008;29;20052;-84
2023/06/17 04:31:04;;;;;;;13.27;9.48;;;;;;;;;;4903696;29;20475;-84
2023/06/17 04:33:54;;;;;;;14.45;10.10;;;;;;;;;;4904115;29;20398;-81
2023/06/17 04:36:40;;;;;;;13.57;9.40;;;;;;;;;;4898725;29;20049;-81
2023/06/17 04:39:28;;;;;;;12.82;9.57;;;;;;;;;;4904138;29;20048;-85
2023/06/17 04:42:14;;;;;;;10.43;8.88;;;;;;;;;;4898403;29;20049;-85
2023/06/17 04:45:01;;;;;;;13.10;8.85;;;;;;;;;;4904008;29;20511;-82
2023/06/17 04:47:46;;;;;;;14.07;9.30;;;;;;;;;;4898790;29;20061;-81
2023/06/17 04:50:33;;;;;;;12.13;9.00;;;;;;;;;;4898491;29;20041;-82
2023/06/17 04:53:19;;;;;;;13.18;9.05;;;;;;;;;;4898723;29;20052;-86
2023/06/17 04:56:07;;;;;;;11.63;8.75;;;;;;;;;;4904189;29;20048;-85
2023/06/17 04:58:52;;;;;;;9.48;8.05;;;;;;;;;;4890795;29;20048;-82
2023/06/17 05:01:37;;;;;;;9.38;8.35;;;;;;;;;;4903759;29;20398;-81
2023/06/17 05:04:23;;;;;;;10.73;8.10;;;;;;;;;;4903621;29;20048;-81
2023/06/17 05:07:09;;;;;;;10.02;8.02;;;;;;;;;;4903546;29;20048;-81
2023/06/17 05:09:56;;;;;;;11.10;8.00;;;;;;;;;;4903385;29;20088;-81
2023/06/17 05:12:42;;;;;;;14.02;8.10;;;;;;;;;;4897252;29;20049;-81
2023/06/17 05:15:28;;;;;;;13.38;9.38;;;;;;;;;;4903684;29;20056;-84
2023/06/17 05:18:13;;;;;;;11.45;8.65;;;;;;;;;;4890366;29;20040;-80
2023/06/17 05:20:58;;;;;;;11.98;9.85;;;;;;;;;;4903759;29;20049;-83
2023/06/17 05:23:44;;;;;;;13.05;9.63;;;;;;;;;;4903476;29;20049;-82
2023/06/17 05:26:30;;;;;;;11.02;8.95;;;;;;;;;;4903512;29;20056;-83
2023/06/17 05:29:15;;;;;;;12.52;8.93;;;;;;;;;;4898624;29;20052;-88
2023/06/17 05:32:03;;;;;;;15.43;9.98;;;;;;;;;;4904498;29;20049;-88
2023/06/17 05:34:49;;;;;;;15.07;10.73;;;;;;;;;;4890024;29;20045;-81
2023/06/17 05:37:34;;;;;;;12.52;10.20;;;;;;;;;;4901629;29;20048;-87
2023/06/17 05:40:21;;;;;;;14.43;9.30;;;;;;;;;;4906871;29;20086;-82
2023/06/17 05:43:08;;;;;;;14.93;9.82;;;;;;;;;;4901378;29;20410;-87
2023/06/17 05:45:54;;;;;;;14.10;10.25;;;;;;;;;;4906657;29;20044;-88
2023/06/17 05:48:39;;;;;;;14.98;11.40;;;;;;;;;;4906759;29;20061;-82
2023/06/17 05:51:27;;;;;;;16.50;12.18;;;;;;;;;;4906473;29;20044;-81
2023/06/17 05:54:14;;;;;;;11.15;9.82;;;;;;;;;;4906616;29;20056;-87
2023/06/17 05:56:59;;;;;;;14.80;10.05;;;;;;;;;;4906617;29;20060;-82
2023/06/17 05:59:45;;;;;;;14.45;10.52;;;;;;;;;;4906330;29;20499;-87
2023/06/17 06:02:30;;;;;;;12.85;10.13;;;;;;;;;;4901062;29;20044;-89
2023/06/17 06:05:16;;;;;;;15.07;10.25;;;;;;;;;;4900985;29;20048;-81
2023/06/17 06:08:02;;;;;;;15.15;10.88;;;;;;;;;;4906261;29;20415;-82
2023/06/17 06:10:47;;;;;;;13.70;9.88;;;;;;;;;;4906036;29;20060;-86
2023/06/17 06:13:32;;;;;;;16.40;9.73;;;;;;;;;;4906212;29;20048;-87
2023/06/17 06:16:18;;;;;;;13.50;10.05;;;;;;;;;;4905835;29;20052;-87
2023/06/17 06:19:04;;;;;;;11.77;10.05;;;;;;;;;;4900774;29;20048;-81
2023/06/17 06:21:50;;;;;;;13.10;9.35;;;;;;;;;;4906882;29;20041;-87
2023/06/17 06:24:35;;;;;;;13.15;10.10;;;;;;;;;;4901088;29;20053;-86
2023/06/17 06:27:21;;;;;;;16.35;11.05;;;;;;;;;;4906930;29;20119;-86
2023/06/17 06:30:07;;;;;;;18.30;12.25;;;;;;;;;;4908210;29;20430;-86
2023/06/17 06:32:57;;;;;;;14.20;11.55;;;;;;;;;;4907780;29;20052;-82
2023/06/17 06:35:43;;;;;;;15.70;12.93;;;;;;;;;;4908767;29;20052;-87
2023/06/17 06:38:34;;;;;;;17.50;12.63;;;;;;;;;;4906588;29;20490;-87
2023/06/17 06:41:20;;;;;;;13.43;10.32;;;;;;;;;;4905933;29;20048;-82
2023/06/17 06:44:16;;;;;;;13.68;9.82;;;;;;;;;;4907445;29;20045;-86
2023/06/17 06:47:02;;;;;;;15.00;10.32;;;;;;;;;;4888301;29;20052;-86
2023/06/17 06:49:49;;;;;;;14.88;9.95;;;;;;;;;;4905649;29;20049;-82
2023/06/17 06:52:35;;;;;;;15.15;10.90;;;;;;;;;;4902999;29;20052;-82
2023/06/17 06:55:22;;;;;;;14.52;11.27;;;;;;;;;;4905599;29;20052;-81
2023/06/17 06:58:10;;;;;;;15.20;11.23;;;;;;;;;;4907923;29;20512;-88
2023/06/17 07:00:55;;;;;;;13.00;9.55;;;;;;;;;;4901964;29;20037;-88
2023/06/17 07:03:41;;;;;;;14.10;10.15;;;;;;;;;;4902767;29;20052;-88
2023/06/17 07:06:27;;;;;;;11.63;9.30;;;;;;;;;;4915856;29;20044;-89
2023/06/17 07:09:12;;;;;;;10.02;8.50;;;;;;;;;;4902067;29;20052;-88
2023/06/17 07:11:58;;;;;;;12.05;9.10;;;;;;;;;;4906512;29;20044;-87
2023/06/17 07:14:44;;;;;;;12.80;9.27;;;;;;;;;;4909770;29;20048;-83
2023/06/17 07:17:30;;;;;;;11.35;8.85;;;;;;;;;;4911860;29;20048;-89
2023/06/17 07:20:16;;;;;;;11.55;9.35;;;;;;;;;;4909352;29;20056;-88
2023/06/17 07:23:03;;;;;;;11.07;9.07;;;;;;;;;;4917312;29;20045;-89
2023/06/17 07:25:50;;;;;;;13.57;9.40;;;;;;;;;;4899974;29;20048;-82
2023/06/17 07:28:36;;;;;;;10.80;9.68;;;;;;;;;;4906845;29;20052;-82
2023/06/17 07:31:22;;;;;;;12.23;9.45;;;;;;;;;;4907074;29;20056;-82
2023/06/17 07:34:08;;;;;;;11.93;9.88;;;;;;;;;;4905341;29;20048;-83
2023/06/17 07:36:54;;;;;;;13.88;9.95;;;;;;;;;;4905109;29;20386;-83
2023/06/17 07:40:06;;;;;;;12.05;9.68;;;;;;;;;;4918104;29;20044;-88
2023/06/17 07:43:23;;;;;;;11.13;8.85;;;;;;;;;;4909618;29;20041;-87
2023/06/17 07:46:08;;;;;;;13.23;9.40;;;;;;;;;;4901967;29;20052;-89
2023/06/17 07:48:54;;;;;;;13.70;9.85;;;;;;;;;;4910230;29;20045;-86
2023/06/17 07:51:39;;;;;;;12.93;10.15;;;;;;;;;;4912419;29;20048;-87
2023/06/17 07:54:25;;;;;;;13.57;10.15;;;;;;;;;;4917274;29;20045;-87
2023/06/17 07:57:10;;;;;;;12.73;8.98;;;;;;;;;;4904692;29;20398;-82
2023/06/17 07:59:56;;;;;;;10.57;8.27;;;;;;;;;;4899740;29;20048;-77
2023/06/17 08:02:42;;;;;;;11.23;8.75;;;;;;;;;;4899189;29;20057;-78
2023/06/17 08:05:27;;;;;;;10.75;8.13;;;;;;;;;;4905545;29;20049;-76
2023/06/17 08:08:12;;;;;;;12.63;7.93;;;;;;;;;;4906947;29;20084;-77
2023/06/17 08:10:59;;;;;;;10.05;8.05;;;;;;;;;;4904811;29;20040;-79
2023/06/17 08:13:45;;;;;;;10.63;8.15;;;;;;;;;;4898441;29;20044;-75
2023/06/17 08:16:30;;;;;;;9.00;7.50;;;;;;;;;;4900646;29;20048;-77
2023/06/17 08:19:16;;;;;;;13.05;8.98;;;;;;;;;;4906977;29;20409;-76
2023/06/17 08:22:01;;;;;;;11.05;8.32;;;;;;;;;;4899514;29;20045;-76
2023/06/17 08:24:47;;;;;;;9.07;8.10;;;;;;;;;;4898556;29;20515;-76
2023/06/17 08:27:33;;;;;;;9.70;7.72;;;;;;;;;;4904891;29;20045;-74
2023/06/17 08:30:18;;;;;;;10.45;6.78;;;;;;;;;;4904901;29;20049;-75
2023/06/17 08:33:04;;;;;;;9.05;7.45;;;;;;;;;;4904857;29;20041;-77
2023/06/17 08:35:49;;;;;;;8.82;7.18;;;;;;;;;;4898872;29;20049;-77
2023/06/17 08:38:36;;;;;;;8.98;7.07;;;;;;;;;;4898827;29;20399;-75
2023/06/17 08:41:21;;;;;;;9.30;7.05;;;;;;;;;;4898655;29;20423;-76
2023/06/17 08:44:11;;;;;;;8.02;6.20;;;;;;;;;;4898434;29;20049;-79
2023/06/17 08:47:00;;;;;;;11.05;6.20;;;;;;;;;;4899561;29;20049;-77
2023/06/17 08:49:46;;;;;;;8.63;7.25;;;;;;;;;;4899424;29;20037;-79
2023/06/17 08:52:33;;;;;;;9.13;6.90;;;;;;;;;;4904869;29;20049;-76
2023/06/17 08:55:19;;;;;;;10.35;7.50;;;;;;;;;;4898363;29;20403;-76
2023/06/17 08:58:06;;;;;;;11.30;8.65;;;;;;;;;;4904677;29;20048;-76
2023/06/17 09:00:52;;;;;;;10.68;7.18;;;;;;;;;;4898271;29;20483;-76
2023/06/17 09:03:41;;;;;;;10.80;7.07;;;;;;;;;;4898339;29;20056;-75
2023/06/17 09:06:28;;;;;;;9.18;7.07;;;;;;;;;;4898401;29;20044;-76
2023/06/17 09:09:13;;;;;;;9.73;6.88;;;;;;;;;;4890419;29;20061;-75
2023/06/17 09:12:04;;;;;;;11.45;7.60;;;;;;;;;;4907389;29;20045;-76
2023/06/17 09:14:54;;;;;;;11.65;8.45;;;;;;;;;;4901839;29;20040;-76
2023/06/17 09:17:41;;;;;;;10.90;8.63;;;;;;;;;;4902251;29;20052;-77
2023/06/17 09:20:31;;;;;;;15.18;10.32;;;;;;;;;;4901987;29;20044;-75
2023/06/17 09:23:17;;;;;;;11.10;9.23;;;;;;;;;;4907851;29;20041;-75
2023/06/17 09:26:04;;;;;;;13.80;9.05;;;;;;;;;;4901601;29;20498;-77
2023/06/17 09:28:49;;;;;;;11.27;8.77;;;;;;;;;;4907064;29;20040;-76
2023/06/17 09:31:52;;;;;;;13.02;10.13;;;;;;;;;;4907770;29;20048;-77
2023/06/17 09:34:47;;;;;;;13.50;9.68;;;;;;;;;;4901592;29;20048;-77
2023/06/17 09:37:34;;;;;;;13.40;9.30;;;;;;;;;;4907736;29;20045;-77
2023/06/17 09:40:20;;;;;;;12.20;9.40;;;;;;;;;;4905939;29;20048;-77
2023/06/17 09:43:06;;;;;;;11.20;9.05;;;;;;;;;;4900970;29;20499;-77
2023/06/17 09:46:00;;;;;;;14.15;9.88;;;;;;;;;;4900923;29;20495;-75
2023/06/17 09:48:47;;;;;;;19.25;10.48;;;;;;;;;;4900975;29;20060;-76
2023/06/17 09:51:40;;;;;;;13.18;8.65;;;;;;;;;;4900886;29;20426;-77
2023/06/17 09:54:26;;;;;;;12.55;9.38;;;;;;;;;;4900414;29;20494;-77
2023/06/17 09:57:14;;;;;;;16.30;9.05;;;;;;;;;;4900952;29;20048;-77
2023/06/17 10:00:09;;;;;;;13.43;9.55;;;;;;;;;;4900407;29;20049;-77
2023/06/17 10:02:54;;;;;;;12.35;9.23;;;;;;;;;;4900387;29;20049;-76
2023/06/17 10:05:40;;;;;;;13.43;9.45;;;;;;;;;;4899200;29;20048;-77
2023/06/17 10:08:29;;;;;;;19.30;11.68;;;;;;;;;;4900169;29;20049;-78
2023/06/17 10:11:18;;;;;;;16.98;11.50;;;;;;;;;;4904883;29;20044;-77
2023/06/17 10:14:10;;;;;;;17.95;12.88;;;;;;;;;;4899241;29;20053;-77
2023/06/17 10:16:56;;;;;;;10.25;7.20;;;;;;;;;;4906431;29;20041;-75
2023/06/17 10:19:45;;;;;;;13.40;7.80;;;;;;;;;;4900143;29;20048;-77
2023/06/17 10:22:32;;;;;;;8.63;7.03;;;;;;;;;;4900203;29;20040;-76
2023/06/17 10:25:18;;;;;;;12.25;7.63;;;;;;;;;;4906574;29;20049;-77
2023/06/17 10:28:05;;;;;;;9.13;7.57;;;;;;;;;;4900247;29;20041;-76
2023/06/17 10:30:51;;;;;;;10.55;7.85;;;;;;;;;;4906335;29;20048;-80
2023/06/17 10:33:45;;;;;;;10.90;8.15;;;;;;;;;;4900697;29;20383;-77
2023/06/17 10:36:33;;;;;;;11.23;8.67;;;;;;;;;;4906959;29;20049;-82
2023/06/17 10:39:19;;;;;;;9.65;8.35;;;;;;;;;;4901877;29;20052;-79
2023/06/17 10:42:13;;;;;;;11.23;9.00;;;;;;;;;;4903228;29;20045;-80
2023/06/17 10:44:58;;;;;;;8.70;6.68;;;;;;;;;;4899739;29;20048;-76
2023/06/17 10:47:43;;;;;;;19.65;12.75;;;;;;;;;;4885658;29;20418;-76
2023/06/17 10:50:29;;;;;;;18.90;12.43;;;;;;;;;;4906323;29;20052;-81
2023/06/17 10:53:18;;;;;;;36.65;19.90;;;;;;;;;;4906002;29;20040;-79
2023/06/17 10:56:06;;;;;;;10.18;8.10;;;;;;;;;;4905941;29;20486;-77
2023/06/17 10:58:52;;;;;;;14.32;9.98;;;;;;;;;;4905893;29;20115;-77
2023/06/17 11:01:43;;;;;;;23.35;12.05;;;;;;;;;;4894508;29;20049;-76
2023/06/17 11:04:36;;;;;;;14.20;9.27;;;;;;;;;;4900089;29;20048;-75
2023/06/17 11:07:26;;;;;;;14.75;10.07;;;;;;;;;;4905847;29;20057;-77
2023/06/17 11:10:11;;;;;;;15.23;10.40;;;;;;;;;;4899793;29;20070;-77
2023/06/17 11:12:57;;;;;;;13.07;10.88;;;;;;;;;;4898965;29;20071;-79
2023/06/17 11:15:43;;;;;;;12.57;10.70;;;;;;;;;;4905656;29;20056;-77
2023/06/17 11:18:29;;;;;;;16.50;11.48;;;;;;;;;;4899594;29;20044;-77
2023/06/17 11:21:15;;;;;;;16.63;13.23;;;;;;;;;;4905137;29;20044;-78
2023/06/17 11:24:00;;;;;;;18.92;13.82;;;;;;;;;;4906242;29;20052;-76
2023/06/17 11:26:46;;;;;;;14.65;12.32;;;;;;;;;;4900504;29;20048;-77
2023/06/17 11:29:31;;;;;;;17.63;13.70;;;;;;;;;;4906486;29;20060;-76
2023/06/17 11:32:20;;;;;;;14.05;12.13;;;;;;;;;;4906248;29;20040;-76
2023/06/17 11:35:08;;;;;;;16.58;12.50;;;;;;;;;;4905990;29;20052;-76
2023/06/17 11:37:54;;;;;;;19.30;12.30;;;;;;;;;;4899035;29;20399;-77
2023/06/17 11:40:42;;;;;;;15.50;12.45;;;;;;;;;;4899276;29;20044;-78
2023/06/17 11:43:27;;;;;;;19.30;13.88;;;;;;;;;;4905234;29;20044;-77
2023/06/17 11:46:13;;;;;;;16.17;12.50;;;;;;;;;;4898922;29;20410;-76
2023/06/17 11:48:58;;;;;;;18.65;14.70;;;;;;;;;;4898880;29;20074;-78
2023/06/17 11:51:50;;;;;;;21.55;14.15;;;;;;;;;;4899179;29;20040;-79
2023/06/17 11:54:48;;;;;;;24.88;17.35;;;;;;;;;;4898879;29;20049;-76
2023/06/17 11:57:33;;;;;;;21.42;16.17;;;;;;;;;;4904679;29;20049;-78
2023/06/17 12:00:19;;;;;;;22.27;16.33;;;;;;;;;;4905225;29;20491;-76
2023/06/17 12:03:04;;;;;;;21.63;15.77;;;;;;;;;;4905783;29;20041;-76
2023/06/17 12:05:50;;;;;;;21.52;16.65;;;;;;;;;;4904417;29;20049;-77
2023/06/17 12:08:36;;;;;;;21.33;16.10;;;;;;;;;;4899237;29;20056;-75
2023/06/17 12:11:25;;;;;;;26.90;21.17;;;;;;;;;;4899005;29;20048;-76
2023/06/17 12:14:12;;;;;;;28.20;21.92;;;;;;;;;;4898835;29;20391;-75
2023/06/17 12:16:57;;;;;;;30.30;21.38;;;;;;;;;;4898718;29;20045;-76
2023/06/17 12:19:43;;;;;;;29.45;20.67;;;;;;;;;;4897941;29;20475;-76
2023/06/17 12:22:28;;;;;;;22.42;17.77;;;;;;;;;;4898686;29;20395;-77
2023/06/17 12:25:14;;;;;;;22.77;17.70;;;;;;;;;;4904946;29;20056;-76
2023/06/17 12:28:01;;;;;;;18.88;14.45;;;;;;;;;;4898856;29;20491;-78
2023/06/17 12:30:47;;;;;;;20.30;14.30;;;;;;;;;;4905054;29;20044;-76
2023/06/17 12:33:33;;;;;;;19.60;15.75;;;;;;;;;;4904705;29;20052;-77
2023/06/17 12:36:18;;;;;;;21.65;15.32;;;;;;;;;;4898511;29;20049;-77
2023/06/17 12:39:04;;;;;;;20.95;16.70;;;;;;;;;;4898839;29;20044;-75
2023/06/17 12:41:50;;;;;;;20.15;16.20;;;;;;;;;;4898325;29;20482;-77
2023/06/17 12:44:36;;;;;;;21.00;16.65;;;;;;;;;;4904477;29;20391;-76
2023/06/17 12:47:23;;;;;;;24.55;16.15;;;;;;;;;;4887615;29;20502;-77
2023/06/17 12:50:09;;;;;;;19.35;16.48;;;;;;;;;;4908289;29;20052;-75
2023/06/17 12:52:55;;;;;;;27.80;17.73;;;;;;;;;;4901709;29;20045;-75
2023/06/17 12:55:41;;;;;;;16.90;15.07;;;;;;;;;;4908485;29;20367;-75
2023/06/17 12:58:26;;;;;;;17.40;15.40;;;;;;;;;;4888002;29;20052;-78
2023/06/17 13:01:11;;;;;;;18.02;14.43;;;;;;;;;;4888328;29;20056;-75
2023/06/17 13:03:57;;;;;;;18.75;13.20;;;;;;;;;;4908346;29;20048;-76
2023/06/17 13:06:44;;;;;;;16.70;13.80;;;;;;;;;;4902168;29;20394;-78
2023/06/17 13:09:29;;;;;;;14.73;12.82;;;;;;;;;;4901114;29;20052;-77
2023/06/17 13:12:15;;;;;;;18.95;14.07;;;;;;;;;;4901553;29;20045;-77
2023/06/17 13:15:03;;;;;;;18.95;13.93;;;;;;;;;;4908140;29;20057;-77
2023/06/17 13:17:48;;;;;;;15.15;12.68;;;;;;;;;;4901803;29;20041;-77
2023/06/17 13:20:35;;;;;;;17.17;12.32;;;;;;;;;;4901635;29;20048;-77
2023/06/17 13:23:20;;;;;;;19.10;13.63;;;;;;;;;;4901093;29;20410;-77
2023/06/17 13:26:07;;;;;;;16.15;13.20;;;;;;;;;;4901964;29;20048;-76
2023/06/17 13:28:54;;;;;;;16.50;13.75;;;;;;;;;;4907987;29;20040;-77
2023/06/17 13:31:39;;;;;;;22.77;17.00;;;;;;;;;;4901307;29;20048;-76
2023/06/17 13:34:25;;;;;;;30.65;22.30;;;;;;;;;;4900568;29;20045;-75
2023/06/17 13:37:14;;;;;;;30.60;22.30;;;;;;;;;;4901466;29;20044;-76
2023/06/17 13:40:00;;;;;;;27.25;18.55;;;;;;;;;;4901751;29;20052;-77
2023/06/17 13:42:45;;;;;;;24.00;16.75;;;;;;;;;;4900612;29;20040;-75
2023/06/17 13:45:30;;;;;;;22.52;16.80;;;;;;;;;;4900805;29;20056;-75
2023/06/17 13:48:17;;;;;;;21.55;15.77;;;;;;;;;;4900802;29;20053;-75
2023/06/17 13:51:04;;;;;;;18.30;13.00;;;;;;;;;;4904676;29;20079;-77
2023/06/17 13:54:21;;;;;;;21.35;14.80;;;;;;;;;;4913219;29;20044;-79
2023/06/17 13:57:06;;;;;;;21.58;14.70;;;;;;;;;;4916225;29;20056;-77
2023/06/17 13:59:53;;;;;;;25.23;17.55;;;;;;;;;;4901685;29;20056;-76
2023/06/17 14:02:38;;;;;;;15.43;12.70;;;;;;;;;;4908862;29;20045;-78
2023/06/17 14:05:26;;;;;;;15.77;10.65;;;;;;;;;;4908994;29;20044;-77
2023/06/17 14:08:10;;;;;;;16.30;12.55;;;;;;;;;;4901881;29;20049;-76
2023/06/17 14:10:59;;;;;;;14.25;11.43;;;;;;;;;;4902047;29;20041;-77
2023/06/17 14:13:45;;;;;;;14.10;10.95;;;;;;;;;;4907144;29;20399;-77
2023/06/17 14:16:32;;;;;;;14.35;11.40;;;;;;;;;;4909374;29;20044;-77
2023/06/17 14:19:18;;;;;;;21.45;13.30;;;;;;;;;;4908156;29;20044;-77
2023/06/17 14:22:10;;;;;;;29.88;18.00;;;;;;;;;;4902194;29;20052;-76
2023/06/17 14:24:55;;;;;;;11.57;9.75;;;;;;;;;;4901383;29;20491;-76
2023/06/17 14:27:42;;;;;;;11.80;10.02;;;;;;;;;;4901403;29;20044;-78
2023/06/17 14:30:28;;;;;;;10.75;9.63;;;;;;;;;;4901182;29;20435;-77
2023/06/17 14:33:13;;;;;;;15.02;11.00;;;;;;;;;;4900707;29;20048;-75
2023/06/17 14:35:58;;;;;;;13.43;11.27;;;;;;;;;;4900900;29;20040;-77
2023/06/17 14:38:44;;;;;;;13.82;11.35;;;;;;;;;;4900999;29;20052;-77
2023/06/17 14:41:30;;;;;;;18.17;12.82;;;;;;;;;;4901384;29;20402;-77
2023/06/17 14:44:15;;;;;;;11.05;9.35;;;;;;;;;;4900540;29;20044;-76
2023/06/17 14:47:01;;;;;;;11.85;10.52;;;;;;;;;;4903812;29;20486;-79
2023/06/17 14:49:46;;;;;;;11.38;9.10;;;;;;;;;;4900306;29;20060;-78
2023/06/17 14:52:32;;;;;;;10.90;9.02;;;;;;;;;;4900373;29;20486;-78
2023/06/17 14:55:17;;;;;;;12.02;9.25;;;;;;;;;;4907216;29;20052;-76
2023/06/17 14:58:03;;;;;;;11.57;9.35;;;;;;;;;;4891775;29;20053;-78
2023/06/17 15:00:49;;;;;;;13.85;10.57;;;;;;;;;;4901462;29;20052;-79
2023/06/17 15:03:36;;;;;;;13.20;10.35;;;;;;;;;;4901238;29;20041;-77
2023/06/17 15:06:21;;;;;;;15.30;10.35;;;;;;;;;;4906628;29;20048;-77
2023/06/17 15:09:29;;;;;;;15.35;11.10;;;;;;;;;;4891538;29;20418;-77
2023/06/17 15:12:15;;;;;;;13.00;10.73;;;;;;;;;;4906810;29;20494;-76
2023/06/17 15:15:01;;;;;;;14.43;10.95;;;;;;;;;;4907437;29;20482;-76
2023/06/17 15:17:47;;;;;;;13.45;10.50;;;;;;;;;;4901986;29;20048;-80
2023/06/17 15:20:32;;;;;;;13.10;11.18;;;;;;;;;;4900759;29;20044;-83
2023/06/17 15:23:17;;;;;;;14.40;11.95;;;;;;;;;;4905415;29;20048;-83
2023/06/17 15:26:03;;;;;;;15.95;11.82;;;;;;;;;;4891867;29;20053;-83
2023/06/17 15:28:48;;;;;;;17.83;11.30;;;;;;;;;;4899546;29;20044;-83
2023/06/17 15:31:34;;;;;;;14.27;11.02;;;;;;;;;;4899456;29;20391;-83
2023/06/17 15:34:20;;;;;;;16.77;11.77;;;;;;;;;;4898580;29;20403;-80
2023/06/17 15:37:06;;;;;;;15.73;11.63;;;;;;;;;;4899453;29;20066;-80
2023/06/17 15:39:52;;;;;;;21.52;16.95;;;;;;;;;;4900278;29;20056;-80
2023/06/17 15:42:38;;;;;;;16.10;12.38;;;;;;;;;;4899978;29;20036;-81
2023/06/17 15:45:23;;;;;;;15.10;11.40;;;;;;;;;;4900150;29;20467;-82
2023/06/17 15:48:08;;;;;;;13.00;11.10;;;;;;;;;;4896563;29;20056;-82
2023/06/17 15:50:55;;;;;;;14.07;10.38;;;;;;;;;;4897710;29;20040;-78
2023/06/17 15:53:39;;;;;;;14.30;11.63;;;;;;;;;;4898365;29;20045;-79
2023/06/17 15:56:26;;;;;;;13.73;9.45;;;;;;;;;;4905205;29;20048;-78
2023/06/17 15:59:11;;;;;;;17.08;12.50;;;;;;;;;;4897745;29;20048;-79
2023/06/17 16:01:57;;;;;;;15.60;11.88;;;;;;;;;;4898876;29;20060;-79
2023/06/17 16:04:44;;;;;;;16.23;11.13;;;;;;;;;;4898919;29;20036;-79
2023/06/17 16:07:31;;;;;;;18.63;12.18;;;;;;;;;;4898388;29;20040;-76
2023/06/17 16:10:17;;;;;;;18.45;12.75;;;;;;;;;;4897427;29;20439;-78
2023/06/17 16:13:03;;;;;;;18.67;11.90;;;;;;;;;;4903602;29;20490;-78
2023/06/17 16:15:48;;;;;;;18.38;12.07;;;;;;;;;;4897906;29;20653;-77
2023/06/17 16:18:34;;;;;;;19.13;12.82;;;;;;;;;;4904555;29;20040;-78